sensor_id;sensor_type;location;lat;lon;timestamp;temperature;humidity
40151;DHT22;25866;52.420;10.640;2022-12-24T00:02:10;6.00;99.90
40151;DHT22;25866;52.420;10.640;2022-12-24T00:04:35;6.00;99.90
40151;DHT22;25866;52.420;10.640;2022-12-24T00:07:01;6.00;99.90
40151;DHT22;25866;52.420;10.640;2022-12-24T00:09:29;5.90;99.90
40151;DHT22;25866;52.420;10.640;2022-12-24T00:11:55;6.00;99.90
40151;DHT22;25866;52.420;10.640;2022-12-24T00:14:20;5.90;99.90
40151;DHT22;25866;52.420;10.640;2022-12-24T00:16:46;5.90;99.90
40151;DHT22;25866;52.420;10.640;2022-12-24T00:19:12;5.90;99.90
40151;DHT22;25866;52.420;10.640;2022-12-24T00:21:38;5.90;99.90
40151;DHT22;25866;52.420;10.640;2022-12-24T00:24:04;5.90;99.90
40151;DHT22;25866;52.420;10.640;2022-12-24T00:26:34;5.90;99.90
40151;DHT22;25866;52.420;10.640;2022-12-24T00:29:00;5.90;99.90
40151;DHT22;25866;52.420;10.640;2022-12-24T00:31:26;5.90;99.90
40151;DHT22;25866;52.420;10.640;2022-12-24T00:33:53;5.90;99.90
40151;DHT22;25866;52.420;10.640;2022-12-24T00:36:19;5.90;99.90
40151;DHT22;25866;52.420;10.640;2022-12-24T00:38:46;5.90;99.90
40151;DHT22;25866;52.420;10.640;2022-12-24T00:41:13;5.90;99.90
40151;DHT22;25866;52.420;10.640;2022-12-24T00:44:02;5.90;99.90
40151;DHT22;25866;52.420;10.640;2022-12-24T00:46:31;5.90;99.90
40151;DHT22;25866;52.420;10.640;2022-12-24T00:48:57;5.90;99.90
40151;DHT22;25866;52.420;10.640;2022-12-24T00:51:24;5.90;99.90
40151;DHT22;25866;52.420;10.640;2022-12-24T00:53:51;5.90;99.90
40151;DHT22;25866;52.420;10.640;2022-12-24T00:56:17;5.90;99.90
40151;DHT22;25866;52.420;10.640;2022-12-24T00:58:43;5.90;99.90
40151;DHT22;25866;52.420;10.640;2022-12-24T01:01:09;5.90;99.90
40151;DHT22;25866;52.420;10.640;2022-12-24T01:03:35;5.90;99.90
40151;DHT22;25866;52.420;10.640;2022-12-24T01:08:31;5.80;99.90
40151;DHT22;25866;52.420;10.640;2022-12-24T01:10:57;5.90;99.90
40151;DHT22;25866;52.420;10.640;2022-12-24T01:13:24;5.90;99.90
40151;DHT22;25866;52.420;10.640;2022-12-24T01:15:50;5.90;99.90
40151;DHT22;25866;52.420;10.640;2022-12-24T01:18:16;5.90;99.90
40151;DHT22;25866;52.420;10.640;2022-12-24T01:20:41;5.90;99.90
40151;DHT22;25866;52.420;10.640;2022-12-24T01:23:07;5.90;99.90
40151;DHT22;25866;52.420;10.640;2022-12-24T01:25:33;5.90;99.90
40151;DHT22;25866;52.420;10.640;2022-12-24T01:27:59;5.90;99.90
40151;DHT22;25866;52.420;10.640;2022-12-24T01:30:25;5.90;99.90
40151;DHT22;25866;52.420;10.640;2022-12-24T01:32:51;5.90;99.90
40151;DHT22;25866;52.420;10.640;2022-12-24T01:35:19;5.90;99.90
40151;DHT22;25866;52.420;10.640;2022-12-24T01:37:45;5.90;99.90
40151;DHT22;25866;52.420;10.640;2022-12-24T01:40:17;5.90;99.90
40151;DHT22;25866;52.420;10.640;2022-12-24T01:43:01;5.90;99.90
40151;DHT22;25866;52.420;10.640;2022-12-24T01:45:49;5.90;99.90
40151;DHT22;25866;52.420;10.640;2022-12-24T01:48:46;5.90;99.90
40151;DHT22;25866;52.420;10.640;2022-12-24T01:53:48;5.90;99.90
40151;DHT22;25866;52.420;10.640;2022-12-24T01:56:17;5.90;99.90
40151;DHT22;25866;52.420;10.640;2022-12-24T01:58:47;5.90;99.90
40151;DHT22;25866;52.420;10.640;2022-12-24T02:01:16;5.90;99.90
40151;DHT22;25866;52.420;10.640;2022-12-24T02:03:42;5.90;99.90
40151;DHT22;25866;52.420;10.640;2022-12-24T02:06:09;5.80;99.90
40151;DHT22;25866;52.420;10.640;2022-12-24T02:08:40;5.90;99.90
40151;DHT22;25866;52.420;10.640;2022-12-24T02:13:52;5.90;99.90
40151;DHT22;25866;52.420;10.640;2022-12-24T02:16:44;5.90;99.90
40151;DHT22;25866;52.420;10.640;2022-12-24T02:24:54;5.90;99.90
40151;DHT22;25866;52.420;10.640;2022-12-24T02:30:13;5.90;99.90
40151;DHT22;25866;52.420;10.640;2022-12-24T02:35:37;5.90;99.90
40151;DHT22;25866;52.420;10.640;2022-12-24T02:38:29;5.90;99.90
40151;DHT22;25866;52.420;10.640;2022-12-24T02:41:10;5.90;99.90
40151;DHT22;25866;52.420;10.640;2022-12-24T02:43:41;5.90;99.90
40151;DHT22;25866;52.420;10.640;2022-12-24T02:46:18;5.90;99.90
40151;DHT22;25866;52.420;10.640;2022-12-24T02:48:47;5.90;99.90
40151;DHT22;25866;52.420;10.640;2022-12-24T02:51:15;5.90;99.90
40151;DHT22;25866;52.420;10.640;2022-12-24T02:53:41;5.90;99.90
40151;DHT22;25866;52.420;10.640;2022-12-24T03:07:16;5.90;99.90
40151;DHT22;25866;52.420;10.640;2022-12-24T03:12:46;5.90;99.90
40151;DHT22;25866;52.420;10.640;2022-12-24T03:15:15;5.90;99.90
40151;DHT22;25866;52.420;10.640;2022-12-24T03:17:45;5.90;99.90
40151;DHT22;25866;52.420;10.640;2022-12-24T03:20:17;5.90;99.90
40151;DHT22;25866;52.420;10.640;2022-12-24T03:22:44;5.90;99.90
40151;DHT22;25866;52.420;10.640;2022-12-24T03:25:10;5.90;99.90
40151;DHT22;25866;52.420;10.640;2022-12-24T03:27:37;5.90;99.90
40151;DHT22;25866;52.420;10.640;2022-12-24T03:30:09;5.90;99.90
40151;DHT22;25866;52.420;10.640;2022-12-24T03:32:36;5.90;99.90
40151;DHT22;25866;52.420;10.640;2022-12-24T03:35:02;5.90;99.90
40151;DHT22;25866;52.420;10.640;2022-12-24T03:37:27;5.90;99.90
40151;DHT22;25866;52.420;10.640;2022-12-24T03:39:53;5.90;99.90
40151;DHT22;25866;52.420;10.640;2022-12-24T03:42:19;5.90;99.90
40151;DHT22;25866;52.420;10.640;2022-12-24T03:44:46;5.90;99.90
40151;DHT22;25866;52.420;10.640;2022-12-24T03:47:12;5.90;99.90
40151;DHT22;25866;52.420;10.640;2022-12-24T03:49:37;5.90;99.90
40151;DHT22;25866;52.420;10.640;2022-12-24T03:52:03;5.90;99.90
40151;DHT22;25866;52.420;10.640;2022-12-24T03:54:29;5.90;99.90
40151;DHT22;25866;52.420;10.640;2022-12-24T03:56:55;5.90;99.90
40151;DHT22;25866;52.420;10.640;2022-12-24T03:59:20;5.90;99.90
40151;DHT22;25866;52.420;10.640;2022-12-24T04:01:46;5.90;99.90
40151;DHT22;25866;52.420;10.640;2022-12-24T04:04:12;5.90;99.90
40151;DHT22;25866;52.420;10.640;2022-12-24T04:06:38;5.90;99.90
40151;DHT22;25866;52.420;10.640;2022-12-24T04:09:03;5.90;99.90
40151;DHT22;25866;52.420;10.640;2022-12-24T04:11:30;5.90;99.90
40151;DHT22;25866;52.420;10.640;2022-12-24T04:13:56;6.00;99.90
40151;DHT22;25866;52.420;10.640;2022-12-24T04:16:22;5.90;99.90
40151;DHT22;25866;52.420;10.640;2022-12-24T04:18:48;6.00;99.90
40151;DHT22;25866;52.420;10.640;2022-12-24T04:21:14;6.00;99.90
40151;DHT22;25866;52.420;10.640;2022-12-24T04:23:41;6.00;99.90
40151;DHT22;25866;52.420;10.640;2022-12-24T04:26:09;6.00;99.90
40151;DHT22;25866;52.420;10.640;2022-12-24T04:28:36;6.00;99.90
40151;DHT22;25866;52.420;10.640;2022-12-24T04:31:05;6.00;99.90
40151;DHT22;25866;52.420;10.640;2022-12-24T04:33:39;6.00;99.90
40151;DHT22;25866;52.420;10.640;2022-12-24T04:36:06;6.10;99.90
40151;DHT22;25866;52.420;10.640;2022-12-24T04:38:32;6.10;99.90
40151;DHT22;25866;52.420;10.640;2022-12-24T04:41:17;6.10;99.90
40151;DHT22;25866;52.420;10.640;2022-12-24T04:43:44;6.10;99.90
40151;DHT22;25866;52.420;10.640;2022-12-24T04:46:11;6.10;99.90
40151;DHT22;25866;52.420;10.640;2022-12-24T04:48:43;6.20;99.90
40151;DHT22;25866;52.420;10.640;2022-12-24T04:51:10;6.20;99.90
40151;DHT22;25866;52.420;10.640;2022-12-24T04:53:38;6.20;99.90
40151;DHT22;25866;52.420;10.640;2022-12-24T04:56:17;6.20;99.90
40151;DHT22;25866;52.420;10.640;2022-12-24T04:58:43;6.20;99.90
40151;DHT22;25866;52.420;10.640;2022-12-24T05:01:13;6.10;99.90
40151;DHT22;25866;52.420;10.640;2022-12-24T05:03:39;6.20;99.90
40151;DHT22;25866;52.420;10.640;2022-12-24T05:06:08;6.10;99.90
40151;DHT22;25866;52.420;10.640;2022-12-24T05:08:35;6.10;99.90
40151;DHT22;25866;52.420;10.640;2022-12-24T05:11:01;6.10;99.90
40151;DHT22;25866;52.420;10.640;2022-12-24T05:13:42;6.10;99.90
40151;DHT22;25866;52.420;10.640;2022-12-24T05:16:09;6.30;99.90
40151;DHT22;25866;52.420;10.640;2022-12-24T05:18:35;6.90;99.90
40151;DHT22;25866;52.420;10.640;2022-12-24T05:21:01;7.20;99.90
40151;DHT22;25866;52.420;10.640;2022-12-24T05:23:28;7.30;99.90
40151;DHT22;25866;52.420;10.640;2022-12-24T05:26:20;7.50;99.90
40151;DHT22;25866;52.420;10.640;2022-12-24T05:28:50;7.50;99.90
40151;DHT22;25866;52.420;10.640;2022-12-24T05:31:16;7.60;99.90
40151;DHT22;25866;52.420;10.640;2022-12-24T05:33:43;7.70;99.90
40151;DHT22;25866;52.420;10.640;2022-12-24T05:36:09;7.60;99.90
40151;DHT22;25866;52.420;10.640;2022-12-24T05:38:35;7.60;99.90
40151;DHT22;25866;52.420;10.640;2022-12-24T05:41:00;7.70;99.90
40151;DHT22;25866;52.420;10.640;2022-12-24T05:43:27;7.60;99.90
40151;DHT22;25866;52.420;10.640;2022-12-24T05:46:00;7.60;99.90
40151;DHT22;25866;52.420;10.640;2022-12-24T05:48:26;7.60;99.90
40151;DHT22;25866;52.420;10.640;2022-12-24T05:50:53;7.70;99.90
40151;DHT22;25866;52.420;10.640;2022-12-24T05:53:19;7.70;99.90
40151;DHT22;25866;52.420;10.640;2022-12-24T05:55:45;7.70;99.90
40151;DHT22;25866;52.420;10.640;2022-12-24T05:58:11;7.70;99.90
40151;DHT22;25866;52.420;10.640;2022-12-24T06:00:36;7.60;99.90
40151;DHT22;25866;52.420;10.640;2022-12-24T06:03:02;7.60;99.90
40151;DHT22;25866;52.420;10.640;2022-12-24T06:05:29;7.60;99.90
40151;DHT22;25866;52.420;10.640;2022-12-24T06:07:55;7.70;99.90
40151;DHT22;25866;52.420;10.640;2022-12-24T06:10:20;7.60;99.90
40151;DHT22;25866;52.420;10.640;2022-12-24T06:12:46;7.60;99.90
40151;DHT22;25866;52.420;10.640;2022-12-24T06:15:13;7.60;99.90
40151;DHT22;25866;52.420;10.640;2022-12-24T06:17:39;7.50;99.90
40151;DHT22;25866;52.420;10.640;2022-12-24T06:20:05;7.50;99.90
40151;DHT22;25866;52.420;10.640;2022-12-24T06:22:31;7.60;99.90
40151;DHT22;25866;52.420;10.640;2022-12-24T06:24:57;7.60;99.90
40151;DHT22;25866;52.420;10.640;2022-12-24T06:27:22;7.60;99.90
40151;DHT22;25866;52.420;10.640;2022-12-24T06:29:49;7.50;99.90
40151;DHT22;25866;52.420;10.640;2022-12-24T06:32:14;7.60;99.90
40151;DHT22;25866;52.420;10.640;2022-12-24T06:34:41;7.60;99.90
40151;DHT22;25866;52.420;10.640;2022-12-24T06:37:07;7.60;99.90
40151;DHT22;25866;52.420;10.640;2022-12-24T06:39:33;7.70;99.90
40151;DHT22;25866;52.420;10.640;2022-12-24T06:41:59;7.70;99.90
40151;DHT22;25866;52.420;10.640;2022-12-24T06:44:26;7.80;99.90
40151;DHT22;25866;52.420;10.640;2022-12-24T06:46:52;7.70;99.90
40151;DHT22;25866;52.420;10.640;2022-12-24T06:49:18;7.80;99.90
40151;DHT22;25866;52.420;10.640;2022-12-24T06:51:43;7.80;99.90
40151;DHT22;25866;52.420;10.640;2022-12-24T06:54:10;7.90;99.90
40151;DHT22;25866;52.420;10.640;2022-12-24T06:56:36;7.90;99.90
40151;DHT22;25866;52.420;10.640;2022-12-24T06:59:01;8.00;99.90
40151;DHT22;25866;52.420;10.640;2022-12-24T07:01:27;8.10;99.90
40151;DHT22;25866;52.420;10.640;2022-12-24T07:03:53;8.10;99.90
40151;DHT22;25866;52.420;10.640;2022-12-24T07:06:27;8.10;99.90
40151;DHT22;25866;52.420;10.640;2022-12-24T07:08:53;8.10;99.90
40151;DHT22;25866;52.420;10.640;2022-12-24T07:11:19;8.10;99.90
40151;DHT22;25866;52.420;10.640;2022-12-24T07:13:46;8.00;99.90
40151;DHT22;25866;52.420;10.640;2022-12-24T07:16:12;8.00;99.90
40151;DHT22;25866;52.420;10.640;2022-12-24T07:18:38;8.10;99.90
40151;DHT22;25866;52.420;10.640;2022-12-24T07:21:04;8.10;99.90
40151;DHT22;25866;52.420;10.640;2022-12-24T07:23:31;8.10;99.90
40151;DHT22;25866;52.420;10.640;2022-12-24T07:26:01;8.10;99.90
40151;DHT22;25866;52.420;10.640;2022-12-24T07:28:28;8.00;99.90
40151;DHT22;25866;52.420;10.640;2022-12-24T07:30:57;8.00;99.90
40151;DHT22;25866;52.420;10.640;2022-12-24T07:33:24;8.00;99.90
40151;DHT22;25866;52.420;10.640;2022-12-24T07:36:07;8.00;99.90
40151;DHT22;25866;52.420;10.640;2022-12-24T07:38:33;8.00;99.90
40151;DHT22;25866;52.420;10.640;2022-12-24T07:41:00;7.90;99.90
40151;DHT22;25866;52.420;10.640;2022-12-24T07:43:26;8.00;99.90
40151;DHT22;25866;52.420;10.640;2022-12-24T07:45:56;8.00;99.90
40151;DHT22;25866;52.420;10.640;2022-12-24T07:48:23;8.10;99.90
40151;DHT22;25866;52.420;10.640;2022-12-24T07:50:50;8.00;99.90
40151;DHT22;25866;52.420;10.640;2022-12-24T07:53:16;8.00;99.90
40151;DHT22;25866;52.420;10.640;2022-12-24T07:55:43;8.00;99.90
40151;DHT22;25866;52.420;10.640;2022-12-24T07:58:09;8.00;99.90
40151;DHT22;25866;52.420;10.640;2022-12-24T08:00:35;7.90;99.90
40151;DHT22;25866;52.420;10.640;2022-12-24T08:03:00;8.00;99.90
40151;DHT22;25866;52.420;10.640;2022-12-24T08:05:39;8.10;99.90
40151;DHT22;25866;52.420;10.640;2022-12-24T08:08:04;8.00;99.90
40151;DHT22;25866;52.420;10.640;2022-12-24T08:10:30;8.10;99.90
40151;DHT22;25866;52.420;10.640;2022-12-24T08:12:56;8.10;99.90
40151;DHT22;25866;52.420;10.640;2022-12-24T08:15:23;8.10;99.90
40151;DHT22;25866;52.420;10.640;2022-12-24T08:17:48;8.10;99.90
40151;DHT22;25866;52.420;10.640;2022-12-24T08:20:14;8.10;99.90
40151;DHT22;25866;52.420;10.640;2022-12-24T08:22:42;8.00;99.90
40151;DHT22;25866;52.420;10.640;2022-12-24T08:25:09;8.00;99.90
40151;DHT22;25866;52.420;10.640;2022-12-24T08:27:35;8.00;99.90
40151;DHT22;25866;52.420;10.640;2022-12-24T08:30:01;8.00;99.90
40151;DHT22;25866;52.420;10.640;2022-12-24T08:32:27;8.00;99.90
40151;DHT22;25866;52.420;10.640;2022-12-24T08:35:00;8.00;99.90
40151;DHT22;25866;52.420;10.640;2022-12-24T08:37:25;8.00;99.90
40151;DHT22;25866;52.420;10.640;2022-12-24T08:39:51;8.00;99.90
40151;DHT22;25866;52.420;10.640;2022-12-24T08:42:17;8.00;99.90
40151;DHT22;25866;52.420;10.640;2022-12-24T08:44:43;8.00;99.90
40151;DHT22;25866;52.420;10.640;2022-12-24T08:47:08;8.00;99.90
40151;DHT22;25866;52.420;10.640;2022-12-24T08:49:34;8.00;99.90
40151;DHT22;25866;52.420;10.640;2022-12-24T08:52:00;8.00;99.90
40151;DHT22;25866;52.420;10.640;2022-12-24T08:54:25;8.00;99.90
40151;DHT22;25866;52.420;10.640;2022-12-24T08:56:53;8.00;99.90
40151;DHT22;25866;52.420;10.640;2022-12-24T08:59:19;8.00;99.90
40151;DHT22;25866;52.420;10.640;2022-12-24T09:01:45;8.00;99.90
40151;DHT22;25866;52.420;10.640;2022-12-24T09:04:11;8.10;99.90
40151;DHT22;25866;52.420;10.640;2022-12-24T09:06:36;8.10;99.90
40151;DHT22;25866;52.420;10.640;2022-12-24T09:09:03;8.20;99.90
40151;DHT22;25866;52.420;10.640;2022-12-24T09:11:29;8.20;99.90
40151;DHT22;25866;52.420;10.640;2022-12-24T09:13:55;8.30;99.90
40151;DHT22;25866;52.420;10.640;2022-12-24T09:16:24;8.30;99.90
40151;DHT22;25866;52.420;10.640;2022-12-24T09:18:50;8.30;99.90
40151;DHT22;25866;52.420;10.640;2022-12-24T09:21:16;8.30;99.90
40151;DHT22;25866;52.420;10.640;2022-12-24T09:23:46;8.30;99.90
40151;DHT22;25866;52.420;10.640;2022-12-24T09:26:20;8.30;99.90
40151;DHT22;25866;52.420;10.640;2022-12-24T09:28:47;8.30;99.90
40151;DHT22;25866;52.420;10.640;2022-12-24T09:31:13;8.30;99.90
40151;DHT22;25866;52.420;10.640;2022-12-24T09:33:41;8.30;99.90
40151;DHT22;25866;52.420;10.640;2022-12-24T09:36:08;8.30;99.90
40151;DHT22;25866;52.420;10.640;2022-12-24T09:38:35;8.30;99.90
40151;DHT22;25866;52.420;10.640;2022-12-24T09:41:09;8.30;99.90
40151;DHT22;25866;52.420;10.640;2022-12-24T09:43:36;8.30;99.90
40151;DHT22;25866;52.420;10.640;2022-12-24T09:48:50;8.20;99.90
40151;DHT22;25866;52.420;10.640;2022-12-24T09:51:38;8.20;99.90
40151;DHT22;25866;52.420;10.640;2022-12-24T09:56:43;8.30;99.90
40151;DHT22;25866;52.420;10.640;2022-12-24T10:01:41;8.20;99.90
40151;DHT22;25866;52.420;10.640;2022-12-24T10:04:13;8.30;99.90
40151;DHT22;25866;52.420;10.640;2022-12-24T10:06:52;8.30;99.90
40151;DHT22;25866;52.420;10.640;2022-12-24T10:12:08;8.50;99.90
40151;DHT22;25866;52.420;10.640;2022-12-24T10:15:41;8.60;99.90
40151;DHT22;25866;52.420;10.640;2022-12-24T10:26:29;8.60;99.90
40151;DHT22;25866;52.420;10.640;2022-12-24T10:29:28;8.60;99.90
40151;DHT22;25866;52.420;10.640;2022-12-24T10:34:37;8.60;99.90
40151;DHT22;25866;52.420;10.640;2022-12-24T10:37:15;8.50;99.90
40151;DHT22;25866;52.420;10.640;2022-12-24T10:39:42;8.60;99.90
40151;DHT22;25866;52.420;10.640;2022-12-24T10:42:08;8.60;99.90
40151;DHT22;25866;52.420;10.640;2022-12-24T10:44:35;8.70;99.90
40151;DHT22;25866;52.420;10.640;2022-12-24T10:47:06;8.70;99.90
40151;DHT22;25866;52.420;10.640;2022-12-24T10:49:52;8.70;99.90
40151;DHT22;25866;52.420;10.640;2022-12-24T10:52:21;8.70;99.90
40151;DHT22;25866;52.420;10.640;2022-12-24T10:55:08;8.80;99.90
40151;DHT22;25866;52.420;10.640;2022-12-24T10:57:37;8.90;99.90
40151;DHT22;25866;52.420;10.640;2022-12-24T11:00:06;8.90;99.90
40151;DHT22;25866;52.420;10.640;2022-12-24T11:02:46;9.00;99.90
40151;DHT22;25866;52.420;10.640;2022-12-24T11:05:31;9.00;99.90
40151;DHT22;25866;52.420;10.640;2022-12-24T11:10:29;9.10;99.90
40151;DHT22;25866;52.420;10.640;2022-12-24T11:12:56;9.20;99.90
40151;DHT22;25866;52.420;10.640;2022-12-24T11:15:27;9.30;99.90
40151;DHT22;25866;52.420;10.640;2022-12-24T11:18:03;9.30;99.90
40151;DHT22;25866;52.420;10.640;2022-12-24T11:20:32;9.40;99.90
40151;DHT22;25866;52.420;10.640;2022-12-24T11:23:00;9.30;99.90
40151;DHT22;25866;52.420;10.640;2022-12-24T11:25:28;9.30;99.90
40151;DHT22;25866;52.420;10.640;2022-12-24T11:28:25;9.30;99.90
40151;DHT22;25866;52.420;10.640;2022-12-24T11:31:16;9.20;99.90
40151;DHT22;25866;52.420;10.640;2022-12-24T11:33:50;9.20;99.90
40151;DHT22;25866;52.420;10.640;2022-12-24T11:36:22;9.20;99.90
40151;DHT22;25866;52.420;10.640;2022-12-24T11:38:55;9.10;99.90
40151;DHT22;25866;52.420;10.640;2022-12-24T11:41:22;9.10;99.90
40151;DHT22;25866;52.420;10.640;2022-12-24T11:44:00;9.10;99.90
40151;DHT22;25866;52.420;10.640;2022-12-24T11:46:41;9.10;99.90
40151;DHT22;25866;52.420;10.640;2022-12-24T11:49:16;9.10;99.90
40151;DHT22;25866;52.420;10.640;2022-12-24T11:55:17;9.00;99.90
40151;DHT22;25866;52.420;10.640;2022-12-24T11:58:04;9.10;99.90
40151;DHT22;25866;52.420;10.640;2022-12-24T12:00:37;9.10;99.90
40151;DHT22;25866;52.420;10.640;2022-12-24T12:06:03;9.00;99.90
40151;DHT22;25866;52.420;10.640;2022-12-24T12:08:36;9.00;99.90
40151;DHT22;25866;52.420;10.640;2022-12-24T12:11:10;9.10;99.90
40151;DHT22;25866;52.420;10.640;2022-12-24T12:13:37;9.00;99.90
40151;DHT22;25866;52.420;10.640;2022-12-24T12:16:48;9.00;99.90
40151;DHT22;25866;52.420;10.640;2022-12-24T12:19:48;9.10;99.90
40151;DHT22;25866;52.420;10.640;2022-12-24T12:25:02;9.10;99.90
40151;DHT22;25866;52.420;10.640;2022-12-24T12:27:43;9.10;99.90
40151;DHT22;25866;52.420;10.640;2022-12-24T12:30:15;9.00;99.90
40151;DHT22;25866;52.420;10.640;2022-12-24T12:35:49;9.10;99.90
40151;DHT22;25866;52.420;10.640;2022-12-24T12:38:27;9.20;99.90
40151;DHT22;25866;52.420;10.640;2022-12-24T12:46:46;9.40;99.90
40151;DHT22;25866;52.420;10.640;2022-12-24T12:53:16;9.30;99.90
40151;DHT22;25866;52.420;10.640;2022-12-24T12:55:41;9.30;99.90
40151;DHT22;25866;52.420;10.640;2022-12-24T13:06:44;9.40;99.90
40151;DHT22;25866;52.420;10.640;2022-12-24T13:09:25;9.30;99.90
40151;DHT22;25866;52.420;10.640;2022-12-24T13:14:56;9.50;99.90
40151;DHT22;25866;52.420;10.640;2022-12-24T13:20:32;9.60;99.90
40151;DHT22;25866;52.420;10.640;2022-12-24T13:23:12;9.60;99.90
40151;DHT22;25866;52.420;10.640;2022-12-24T13:25:50;9.60;99.90
40151;DHT22;25866;52.420;10.640;2022-12-24T13:36:10;9.30;99.90
40151;DHT22;25866;52.420;10.640;2022-12-24T13:38:57;9.20;99.90
40151;DHT22;25866;52.420;10.640;2022-12-24T13:52:06;9.10;99.90
40151;DHT22;25866;52.420;10.640;2022-12-24T13:54:32;9.00;99.90
40151;DHT22;25866;52.420;10.640;2022-12-24T13:57:00;9.00;99.90
40151;DHT22;25866;52.420;10.640;2022-12-24T13:59:34;8.90;99.90
40151;DHT22;25866;52.420;10.640;2022-12-24T14:02:02;8.90;99.90
40151;DHT22;25866;52.420;10.640;2022-12-24T14:04:32;8.90;99.90
40151;DHT22;25866;52.420;10.640;2022-12-24T14:07:02;8.90;99.90
40151;DHT22;25866;52.420;10.640;2022-12-24T14:09:32;8.90;99.90
40151;DHT22;25866;52.420;10.640;2022-12-24T14:14:35;8.80;99.90
40151;DHT22;25866;52.420;10.640;2022-12-24T14:19:55;8.70;99.90
40151;DHT22;25866;52.420;10.640;2022-12-24T14:25:16;8.70;99.90
40151;DHT22;25866;52.420;10.640;2022-12-24T14:27:45;8.70;99.90
40151;DHT22;25866;52.420;10.640;2022-12-24T14:30:25;8.70;99.90
40151;DHT22;25866;52.420;10.640;2022-12-24T14:32:52;8.70;99.90
40151;DHT22;25866;52.420;10.640;2022-12-24T14:35:21;8.70;99.90
40151;DHT22;25866;52.420;10.640;2022-12-24T14:38:01;8.60;99.90
40151;DHT22;25866;52.420;10.640;2022-12-24T14:40:29;8.50;99.90
40151;DHT22;25866;52.420;10.640;2022-12-24T14:46:16;8.50;99.90
40151;DHT22;25866;52.420;10.640;2022-12-24T14:50:14;8.50;99.90
40151;DHT22;25866;52.420;10.640;2022-12-24T14:52:01;8.50;99.90
40151;DHT22;25866;52.420;10.640;2022-12-24T14:54:40;8.40;99.90
40151;DHT22;25866;52.420;10.640;2022-12-24T14:59:54;8.40;99.90
40151;DHT22;25866;52.420;10.640;2022-12-24T15:05:15;8.20;99.90
40151;DHT22;25866;52.420;10.640;2022-12-24T15:07:56;8.10;99.90
40151;DHT22;25866;52.420;10.640;2022-12-24T15:10:29;8.00;99.90
40151;DHT22;25866;52.420;10.640;2022-12-24T15:12:57;8.00;99.90
40151;DHT22;25866;52.420;10.640;2022-12-24T15:15:26;7.90;99.90
40151;DHT22;25866;52.420;10.640;2022-12-24T15:17:52;7.90;99.90
40151;DHT22;25866;52.420;10.640;2022-12-24T15:20:24;7.80;99.90
40151;DHT22;25866;52.420;10.640;2022-12-24T15:22:53;7.80;99.90
40151;DHT22;25866;52.420;10.640;2022-12-24T15:25:30;7.80;99.90
40151;DHT22;25866;52.420;10.640;2022-12-24T15:27:57;7.80;99.90
40151;DHT22;25866;52.420;10.640;2022-12-24T15:30:26;7.70;99.90
40151;DHT22;25866;52.420;10.640;2022-12-24T15:32:54;7.70;99.90
40151;DHT22;25866;52.420;10.640;2022-12-24T15:35:30;7.70;99.90
40151;DHT22;25866;52.420;10.640;2022-12-24T15:37:57;7.70;99.90
40151;DHT22;25866;52.420;10.640;2022-12-24T15:40:24;7.70;99.90
40151;DHT22;25866;52.420;10.640;2022-12-24T15:42:50;7.70;99.90
40151;DHT22;25866;52.420;10.640;2022-12-24T15:45:20;7.70;99.90
40151;DHT22;25866;52.420;10.640;2022-12-24T15:47:53;7.70;99.90
40151;DHT22;25866;52.420;10.640;2022-12-24T15:50:24;7.70;99.90
40151;DHT22;25866;52.420;10.640;2022-12-24T15:52:53;7.70;99.90
40151;DHT22;25866;52.420;10.640;2022-12-24T15:55:45;7.70;99.90
40151;DHT22;25866;52.420;10.640;2022-12-24T15:58:27;7.70;99.90
40151;DHT22;25866;52.420;10.640;2022-12-24T16:03:25;7.70;99.90
40151;DHT22;25866;52.420;10.640;2022-12-24T16:06:02;7.70;99.90
40151;DHT22;25866;52.420;10.640;2022-12-24T16:08:36;7.70;99.90
40151;DHT22;25866;52.420;10.640;2022-12-24T16:11:20;7.70;99.90
40151;DHT22;25866;52.420;10.640;2022-12-24T16:16:36;7.70;99.90
40151;DHT22;25866;52.420;10.640;2022-12-24T16:19:04;7.70;99.90
40151;DHT22;25866;52.420;10.640;2022-12-24T16:21:40;7.70;99.90
40151;DHT22;25866;52.420;10.640;2022-12-24T16:24:27;7.70;99.90
40151;DHT22;25866;52.420;10.640;2022-12-24T16:26:54;7.70;99.90
40151;DHT22;25866;52.420;10.640;2022-12-24T16:29:22;7.60;99.90
40151;DHT22;25866;52.420;10.640;2022-12-24T16:31:56;7.60;99.90
40151;DHT22;25866;52.420;10.640;2022-12-24T16:34:28;7.70;99.90
40151;DHT22;25866;52.420;10.640;2022-12-24T16:36:54;7.70;99.90
40151;DHT22;25866;52.420;10.640;2022-12-24T16:39:23;7.60;99.90
40151;DHT22;25866;52.420;10.640;2022-12-24T16:41:54;7.60;99.90
40151;DHT22;25866;52.420;10.640;2022-12-24T16:44:38;7.60;99.90
40151;DHT22;25866;52.420;10.640;2022-12-24T16:47:19;7.60;99.90
40151;DHT22;25866;52.420;10.640;2022-12-24T16:49:47;7.60;99.90
40151;DHT22;25866;52.420;10.640;2022-12-24T16:52:20;7.40;99.90
40151;DHT22;25866;52.420;10.640;2022-12-24T16:54:47;7.40;99.90
40151;DHT22;25866;52.420;10.640;2022-12-24T16:57:12;7.40;99.90
40151;DHT22;25866;52.420;10.640;2022-12-24T16:59:39;7.30;99.90
40151;DHT22;25866;52.420;10.640;2022-12-24T17:02:05;7.20;99.90
40151;DHT22;25866;52.420;10.640;2022-12-24T17:04:34;7.20;99.90
40151;DHT22;25866;52.420;10.640;2022-12-24T17:07:00;7.20;99.90
40151;DHT22;25866;52.420;10.640;2022-12-24T17:09:33;7.20;99.90
40151;DHT22;25866;52.420;10.640;2022-12-24T17:11:58;7.30;99.90
40151;DHT22;25866;52.420;10.640;2022-12-24T17:14:24;7.30;99.90
40151;DHT22;25866;52.420;10.640;2022-12-24T17:16:50;7.30;99.90
40151;DHT22;25866;52.420;10.640;2022-12-24T17:19:17;7.30;99.90
40151;DHT22;25866;52.420;10.640;2022-12-24T17:21:43;7.30;99.90
40151;DHT22;25866;52.420;10.640;2022-12-24T17:24:09;7.30;99.90
40151;DHT22;25866;52.420;10.640;2022-12-24T17:26:35;7.30;99.90
40151;DHT22;25866;52.420;10.640;2022-12-24T17:29:01;7.30;99.90
40151;DHT22;25866;52.420;10.640;2022-12-24T17:31:30;7.40;99.90
40151;DHT22;25866;52.420;10.640;2022-12-24T17:33:56;7.40;99.90
40151;DHT22;25866;52.420;10.640;2022-12-24T17:36:22;7.40;99.90
40151;DHT22;25866;52.420;10.640;2022-12-24T17:38:48;7.30;99.90
40151;DHT22;25866;52.420;10.640;2022-12-24T17:41:18;7.30;99.90
40151;DHT22;25866;52.420;10.640;2022-12-24T17:43:45;7.30;99.90
40151;DHT22;25866;52.420;10.640;2022-12-24T17:46:20;7.40;99.90
40151;DHT22;25866;52.420;10.640;2022-12-24T17:48:47;7.40;99.90
40151;DHT22;25866;52.420;10.640;2022-12-24T17:51:18;7.40;99.90
40151;DHT22;25866;52.420;10.640;2022-12-24T17:53:44;7.40;99.90
40151;DHT22;25866;52.420;10.640;2022-12-24T17:56:11;7.40;99.90
40151;DHT22;25866;52.420;10.640;2022-12-24T17:58:39;7.40;99.90
40151;DHT22;25866;52.420;10.640;2022-12-24T18:01:19;7.30;99.90
40151;DHT22;25866;52.420;10.640;2022-12-24T18:03:45;7.40;99.90